Latest Weather Observations for Renmark Airport

IDS60801

Issued at 12:31 am CST Saturday 1 October 2016 (issued every 30 minutes, with the page automatically refreshed every 10 minutes)

About weather observations | Map of weather stations | Latest weather observations for SA | Other Formats
Station Details ID: 024048 Name: RENMARK AERO Lat: -34.20 Lon: 140.68 Height: 31.5 m
Data from the previous 72 hours. | See also: Recent months at Renmark Airport
Date/Time
CST
Temp
°C
App
Temp
°C
Dew
Point
°C
Rel
Hum
%
Delta-T
°C
Wind Press
QNH
hPa
Press
MSL
hPa
Rain since
9am
mm
Dir  Spd
km/h
Gust
km/h
Spd
kts
Gust
kts
01/12:30am 8.9 5.4 8.9 100 0.0 WNW 17 20 9 11 1007.0 1007.0 0.6
01/12:00am 9.3 6.3 9.2 99 0.0 W 15 20 8 11 1006.7 1006.7 0.6
 
Date/Time
CST
Temp
°C
App
Temp
°C
Dew
Point
°C
Rel
Hum
%
Delta-T
°C
Wind Press
QNH
hPa
Press
MSL
hPa
Rain since
9am
mm
Dir  Spd
km/h
Gust
km/h
Spd
kts
Gust
kts
30/11:30pm 9.6 6.2 9.0 96 0.3 W 17 24 9 13 1006.8 1006.8 0.6
30/11:00pm 10.2 6.4 9.1 93 0.5 W 19 28 10 15 1007.0 1007.0 0.6
30/10:30pm 11.0 7.0 8.9 87 1.0 W 20 26 11 14 1006.9 1006.9 0.6
30/10:00pm 11.5 7.7 9.1 85 1.2 W 19 24 10 13 1006.6 1006.6 0.6
30/09:30pm 11.9 8.8 8.7 81 1.6 W 15 20 8 11 1006.5 1006.5 0.6
30/09:00pm 11.9 8.8 8.7 81 1.6 W 15 20 8 11 1006.4 1006.4 0.6
30/08:30pm 12.1 9.3 8.4 78 1.8 W 13 17 7 9 1006.2 1006.2 0.6
30/08:00pm 12.2 10.3 9.0 81 1.6 W 9 13 5 7 1006.0 1006.0 0.6
30/07:30pm 12.8 11.2 8.9 77 2.0 WSW 7 11 4 6 1005.6 1005.6 0.6
30/07:00pm 13.2 10.0 8.3 72 2.4 WSW 15 22 8 12 1005.2 1005.2 0.6
30/06:30pm 13.4 9.8 8.5 72 2.5 SW 17 24 9 13 1004.9 1004.9 0.6
30/06:00pm 13.5 9.4 8.6 72 2.5 SW 20 30 11 16 1004.4 1004.4 0.6
30/05:30pm 13.7 9.8 8.7 72 2.5 SW 19 28 10 15 1004.1 1004.1 0.6
30/05:03pm 14.6 8.7 7.6 63 3.5 SW 28 46 15 25 1003.7 1003.7 0.6
30/05:00pm 14.5 8.3 7.8 64 3.3 SW 30 46 16 25 1003.7 1003.7 0.6
30/04:55pm 14.6 8.7 7.6 63 3.5 WSW 28 46 15 25 1003.7 1003.7 0.6
30/04:30pm 15.0 9.9 7.8 62 3.6 SW 24 39 13 21 1003.4 1003.4 0.6
30/04:00pm 14.7 10.0 9.3 70 2.8 W 24 35 13 19 1003.2 1003.2 0.6
30/03:30pm 15.1 11.1 9.2 68 3.0 WSW 20 32 11 17 1002.9 1002.9 0.6
30/03:00pm 15.5 10.0 9.0 65 3.3 WSW 28 41 15 22 1002.8 1002.8 0.6
30/02:42pm 15.1 9.5 8.8 66 3.2 WSW 28 46 15 25 1002.7 1002.7 0.6
30/02:30pm 15.0 9.9 9.1 68 3.0 WSW 26 39 14 21 1002.7 1002.7 0.6
30/02:02pm 13.6 8.4 10.4 81 1.7 WSW 28 46 15 25 1002.7 1002.7 0.6
30/02:00pm 13.6 7.8 10.8 83 1.5 WSW 32 46 17 25 1002.7 1002.7 0.6
30/01:33pm 16.2 10.2 8.7 61 3.8 WSW 30 50 16 27 1002.2 1002.2 0.2
30/01:30pm 16.8 11.2 10.2 65 3.5 WSW 30 46 16 25 1002.2 1002.2 0.2
30/01:04pm 15.9 10.4 9.1 64 3.5 WSW 28 48 15 26 1002.0 1002.0 0.2
30/01:00pm 16.3 11.6 10.8 70 2.9 WSW 26 39 14 21 1002.0 1002.0 0.2
30/12:30pm 13.2 7.5 11.1 87 1.1 SW 32 52 17 28 1001.9 1001.9 0.2
30/12:00pm 15.4 10.5 11.4 77 2.2 WSW 28 46 15 25 1001.5 1001.5 0.2
30/11:34am 14.5 9.0 10.5 77 2.1 WSW 30 48 16 26 1001.4 1001.4 0.0
30/11:30am 15.6 8.8 9.1 65 3.4 W 35 50 19 27 1001.2 1001.2 0.0
30/11:19am 16.2 9.4 9.2 63 3.6 W 35 54 19 29 1001.0 1001.0 0.0
30/11:00am 15.2 7.9 8.9 66 3.2 W 37 50 20 27 1001.1 1001.1 0.0
30/10:32am 14.6 7.2 8.5 67 3.1 W 37 61 20 33 1001.0 1001.0 0.0
30/10:30am 14.7 7.7 8.6 67 3.1 W 35 48 19 26 1001.1 1001.1 0.0
30/10:12am 14.9 8.5 8.6 66 3.2 W 32 52 17 28 1000.8 1000.8 0.0
30/10:00am 14.7 7.7 8.4 66 3.2 W 35 48 19 26 1000.8 1000.8 0.0
30/09:30am 14.5 7.8 8.2 66 3.2 W 33 50 18 27 1000.8 1000.8 0.0
30/09:29am 14.3 7.7 7.6 64 3.3 W 32 50 17 27 1000.8 1000.8 0.0
30/09:00am 13.4 7.7 8.5 72 2.5 W 28 37 15 20 1000.9 1000.9 15.2
30/08:30am 13.0 6.5 8.1 72 2.4 W 32 43 17 23 1000.9 1000.9 15.2
30/08:00am 12.1 6.4 8.4 78 1.8 W 28 39 15 21 1000.5 1000.5 15.2
30/07:30am 11.1 6.2 8.5 84 1.3 W 24 32 13 17 1000.3 1000.3 15.2
30/07:00am 9.8 5.0 8.7 93 0.5 W 24 32 13 17 999.9 999.9 15.2
30/06:30am 9.2 5.2 9.2 100 0.0 W 20 28 11 15 999.5 999.5 15.2
30/06:00am 8.3 4.7 8.3 100 0.0 W 17 26 9 14 998.8 998.8 15.2
30/05:30am 8.2 4.0 8.2 100 0.0 WSW 20 28 11 15 998.2 998.2 15.2
30/05:00am 8.2 4.0 8.2 100 0.0 WSW 20 32 11 17 997.3 997.3 15.2
30/04:30am 8.3 3.7 8.3 100 0.0 WSW 22 32 12 17 997.0 997.0 15.2
30/04:00am 8.3 4.1 8.3 100 0.0 WSW 20 30 11 16 996.1 996.1 15.2
30/03:30am 8.4 4.4 8.4 100 0.0 WSW 19 26 10 14 995.4 995.4 15.2
30/03:00am 8.4 5.6 8.4 100 0.0 SW 13 20 7 11 994.5 994.5 15.0
30/02:30am 8.7 5.2 8.7 100 0.0 SW 17 22 9 12 994.0 994.0 15.0
30/02:00am 9.1 5.3 9.1 100 0.0 SW 19 28 10 15 993.7 993.7 13.8
30/01:30am 9.7 3.4 8.8 94 0.4 W 32 46 17 25 993.2 993.2 12.4
30/01:00am 10.1 3.4 9.6 97 0.3 W 35 48 19 26 992.6 992.5 11.8
30/12:30am 10.5 3.4 9.4 93 0.6 W 37 54 20 29 992.6 992.5 11.2
30/12:00am 10.9 2.8 8.7 86 1.1 W 41 65 22 35 992.7 992.7 10.8
 
Date/Time
CST
Temp
°C
App
Temp
°C
Dew
Point
°C
Rel
Hum
%
Delta-T
°C
Wind Press
QNH
hPa
Press
MSL
hPa
Rain since
9am
mm
Dir  Spd
km/h
Gust
km/h
Spd
kts
Gust
kts
29/11:30pm 11.5 2.9 8.0 79 1.7 W 43 61 23 33 992.6 992.5 10.8
29/11:00pm 11.4 2.9 8.4 82 1.5 W 43 65 23 35 992.7 992.7 10.8
29/10:30pm 11.7 2.5 8.0 78 1.8 W 46 65 25 35 992.6 992.5 10.6
29/10:00pm 11.6 3.1 8.5 81 1.5 W 43 61 23 33 992.5 992.4 10.6
29/09:30pm 11.7 3.3 8.9 83 1.4 W 43 63 23 34 992.5 992.4 10.6
29/09:04pm 11.6 4.4 9.2 85 1.2 W 37 61 20 33 992.3 992.2 10.6
29/09:00pm 11.5 4.4 9.6 88 1.0 W 37 50 20 27 992.3 992.2 10.6
29/08:42pm 11.5 4.1 9.8 89 0.9 W 39 61 21 33 992.0 991.9 10.6
29/08:30pm 11.5 4.5 10.1 91 0.7 W 37 54 20 29 991.9 991.8 10.6
29/08:07pm 11.3 5.4 11.0 98 0.2 W 33 54 18 29 991.7 991.6 10.6
29/08:00pm 11.2 5.9 11.2 100 0.0 W 30 43 16 23 991.6 991.5 10.6
29/07:31pm 11.1 6.1 11.1 100 0.0 W 28 46 15 25 991.1 991.0 10.4
29/07:30pm 11.1 6.1 11.1 100 0.0 WSW 28 39 15 21 991.1 991.0 10.4
29/07:00pm 11.1 5.8 11.1 100 0.0 W 30 37 16 20 990.3 990.2 9.0
29/06:30pm 10.9 5.5 10.9 100 0.0 WSW 30 44 16 24 989.4 989.3 9.0
29/06:00pm 11.4 5.6 11.4 100 0.0 W 33 57 18 31 988.6 988.5 8.6
29/05:45pm 11.5 5.9 11.5 100 0.0 WNW 32 56 17 30 987.7 987.6 7.2
29/05:30pm 11.2 5.9 11.2 100 0.0 WNW 30 43 16 23 987.5 987.4 7.0
29/05:00pm 11.2 6.3 11.2 100 0.0 WNW 28 46 15 25 987.8 987.7 6.2
29/04:30pm 11.0 6.0 11.0 100 0.0 WNW 28 39 15 21 987.7 987.6 5.0
29/04:10pm 11.3 5.1 11.3 100 0.0 WNW 35 54 19 29 987.7 987.6 3.8
29/04:00pm 11.8 4.4 9.7 87 1.1 WNW 39 56 21 30 987.6 987.5 3.8
29/03:30pm 12.0 3.6 8.8 81 1.6 WNW 43 63 23 34 987.3 987.2 3.8
29/03:14pm 12.3 3.1 7.8 74 2.2 WNW 46 65 25 35 987.1 987.0 3.8
29/03:00pm 14.1 4.6 6.7 61 3.6 WNW 46 63 25 34 986.8 986.7 3.8
29/02:30pm 15.5 6.9 8.3 62 3.7 WNW 43 65 23 35 986.6 986.5 3.8
29/02:01pm 15.4 6.6 7.9 61 3.8 WNW 44 69 24 37 986.4 986.3 3.8
29/02:00pm 15.5 7.0 8.7 64 3.5 WNW 43 59 23 32 986.4 986.3 3.8
29/01:33pm 13.5 7.3 9.4 76 2.1 WNW 32 50 17 27 986.4 986.3 3.6
29/01:30pm 14.1 8.1 8.7 70 2.8 WNW 30 43 16 23 986.4 986.3 3.6
29/01:03pm 12.0 5.4 9.9 87 1.1 WNW 35 54 19 29 987.0 986.9 3.6
29/01:00pm 11.8 4.2 9.2 84 1.3 WNW 39 54 21 29 986.9 986.8 3.6
29/12:30pm 12.7 4.3 7.4 70 2.6 WNW 41 61 22 33 986.7 986.6 3.4
29/12:04pm 12.5 5.3 9.0 79 1.8 NW 37 57 20 31 986.6 986.5 3.4
29/12:00pm 11.7 4.9 9.1 84 1.3 NW 35 50 19 27 986.7 986.6 3.4
29/11:51am 11.1 2.8 9.4 89 0.9 WNW 43 61 23 33 986.6 986.5 3.4
29/11:30am 11.2 2.3 9.3 88 1.0 NW 46 63 25 34 986.4 986.3 3.4
29/11:11am 10.6 2.9 10.1 97 0.3 NW 41 61 22 33 986.4 986.3 3.2
29/11:00am 10.4 3.0 9.9 97 0.3 NW 39 52 21 28 986.3 986.2 3.0
29/10:33am 10.1 1.4 10.1 100 0.0 NW 46 70 25 38 986.4 986.3 3.0
29/10:30am 10.0 1.7 10.0 100 0.0 NW 44 61 24 33 986.5 986.4 3.0
29/10:00am 9.2 0.5 7.5 89 0.8 NW 43 61 23 33 986.7 986.6 1.8
29/09:30am 9.0 0.0 6.6 85 1.1 NNW 43 65 23 35 986.7 986.6 0.8
29/09:00am 10.5 0.1 4.0 64 2.9 NNW 48 74 26 40 986.8 986.7 -
29/08:50am 10.3 -0.6 3.6 63 2.9 NNW 50 69 27 37 987.1 987.0 -
29/08:44am 10.1 -0.1 3.4 63 2.9 NNW 46 65 25 35 987.3 987.2 -
29/08:30am 10.0 1.6 3.7 65 2.8 NNW 37 57 20 31 987.6 987.5 -
29/08:00am 9.7 0.4 3.2 64 2.8 NNW 41 59 22 32 988.1 988.0 -
29/07:34am 9.9 0.1 2.5 60 3.2 NNW 43 69 23 37 988.3 988.2 -
29/07:30am 9.8 0.5 2.9 62 3.0 NNW 41 57 22 31 988.3 988.2 -
29/07:07am 9.9 1.7 2.7 61 3.1 NNW 35 56 19 30 988.5 988.4 -
29/07:00am 9.9 2.3 3.0 62 3.0 NNW 32 44 17 24 988.6 988.5 -
29/06:30am 8.8 1.2 3.0 67 2.5 NNW 32 48 17 26 989.0 988.9 -
29/06:28am 8.9 1.7 2.9 66 2.6 NNW 30 48 16 26 989.1 989.0 -
29/06:00am 8.6 2.2 3.0 68 2.4 NNW 26 37 14 20 989.4 989.3 -
29/05:30am 8.5 1.3 3.1 69 2.3 NNW 30 43 16 23 989.5 989.4 -
29/05:00am 8.6 1.4 3.2 69 2.3 NNW 30 41 16 22 989.9 989.8 -
29/04:30am 8.4 2.1 3.5 71 2.1 NNW 26 35 14 19 990.4 990.3 -
29/04:00am 8.4 2.4 3.3 70 2.2 NNW 24 33 13 18 990.9 990.8 -
29/03:30am 8.3 2.3 3.2 70 2.2 NNW 24 33 13 18 991.6 991.5 -
29/03:00am 8.4 2.4 3.5 71 2.1 NW 24 35 13 19 992.1 992.0 -
29/02:30am 8.7 2.7 3.5 70 2.3 NNW 24 35 13 19 992.2 992.1 -
29/02:00am 8.6 3.4 3.6 71 2.2 NW 20 28 11 15 992.7 992.7 -
29/01:30am 9.2 2.5 3.6 68 2.5 WNW 28 43 15 23 993.0 993.0 -
29/01:00am 8.9 3.9 4.7 75 1.9 NW 20 28 11 15 993.5 993.5 -
29/12:30am 9.1 3.8 5.1 76 1.8 WNW 22 32 12 17 993.7 993.7 -
29/12:00am 9.4 3.9 5.9 79 1.6 NW 24 30 13 16 994.0 994.0 -
 
Date/Time
CST
Temp
°C
App
Temp
°C
Dew
Point
°C
Rel
Hum
%
Delta-T
°C
Wind Press
QNH
hPa
Press
MSL
hPa
Rain since
9am
mm
Dir  Spd
km/h
Gust
km/h
Spd
kts
Gust
kts
28/11:30pm 9.8 4.6 5.4 74 2.0 WNW 22 30 12 16 994.0 994.0 -
28/03:30pm 18.2 12.2 10.8 62 4.0 NNE 33 48 18 26 994.6 994.6 2.2
28/03:00pm 19.0 12.7 9.8 55 4.9 NE 33 48 18 26 995.2 995.2 2.2
28/02:30pm 18.3 13.9 11.6 65 3.7 NE 26 33 14 18 996.8 996.8 2.2
28/02:26pm 18.0 13.6 11.6 66 3.5 NNE 26 33 14 18 997.1 997.1 2.2
28/02:00pm 16.5 13.7 12.7 78 2.1 NNE 19 26 10 14 999.1 999.1 2.2
28/01:43pm 16.6 12.3 10.7 68 3.1 N 24 35 13 19 1000.3 1000.3 2.2
28/01:30pm 16.0 15.0 12.2 78 2.1 NNE 9 13 5 7 1001.0 1001.0 2.0
28/01:00pm 16.7 11.1 8.9 60 4.0 N 28 41 15 22 1001.9 1001.9 0.8
28/12:53pm 18.3 11.9 7.1 48 5.6 N 30 41 16 22 1001.3 1001.3 0.2
28/12:30pm 20.7 11.3 4.3 34 8.0 NE 43 61 23 33 999.6 999.6 0.0
28/12:09pm 21.0 12.2 3.7 32 8.3 NNE 39 57 21 31 1000.1 1000.1 0.0
28/12:00pm 21.0 12.7 4.1 33 8.2 NE 37 54 20 29 1001.3 1001.3 0.0
28/11:30am 19.9 11.9 4.0 35 7.6 NE 35 48 19 26 1002.2 1002.2 0.0
28/11:00am 19.8 11.7 3.5 34 7.7 NE 35 46 19 25 1003.8 1003.8 0.0
28/10:30am 19.1 10.7 3.7 36 7.3 NNE 37 48 20 26 1005.0 1005.0 0.0
28/10:00am 18.8 11.4 4.2 38 7.0 NE 32 43 17 23 1006.1 1006.1 0.0
28/09:30am 17.9 10.6 4.5 41 6.4 NNE 32 39 17 21 1007.1 1007.1 0.0
28/09:00am 17.1 10.2 4.8 44 5.9 NNE 30 37 16 20 1007.8 1007.8 0.0
28/08:38am 15.8 9.1 3.9 45 5.5 NNE 28 46 15 25 1008.2 1008.2 0.0
28/08:30am 15.8 8.9 4.8 48 5.2 NNE 30 39 16 21 1008.4 1008.4 0.0
28/08:00am 14.4 9.2 5.5 55 4.2 NNE 22 32 12 17 1008.8 1008.8 0.0
28/07:30am 12.1 7.9 5.9 66 2.9 N 17 20 9 11 1009.7 1009.7 0.0
28/07:00am 9.3 6.2 5.7 78 1.6 NE 11 13 6 7 1010.1 1010.1 0.0
28/06:30am 7.4 4.2 5.2 86 1.0 NE 11 13 6 7 1010.2 1010.2 0.0
28/06:00am 4.0 0.9 3.4 96 0.2 ENE 9 9 5 5 1010.3 1010.3 0.0
28/05:30am 4.6 1.4 3.3 91 0.5 ENE 9 9 5 5 1010.2 1010.2 0.0
28/05:00am 6.0 2.7 4.6 91 0.6 ENE 11 13 6 7 1010.3 1010.3 0.0
28/04:30am 6.2 3.0 5.3 94 0.4 ENE 11 13 6 7 1010.5 1010.5 0.0
28/04:00am 4.9 2.0 4.8 99 0.0 E 9 13 5 7 1010.7 1010.7 0.0
28/03:30am 3.7 1.0 3.6 99 0.0 E 7 9 4 5 1011.1 1011.1 0.0
28/03:00am 3.6 1.8 3.5 99 0.0 ESE 2 7 1 4 1011.5 1011.5 0.0
28/02:30am 3.9 2.5 3.6 98 0.1 CALM 0 0 0 0 1011.9 1011.9 0.0
28/02:00am 4.1 2.7 3.7 97 0.2 CALM 0 0 0 0 1012.1 1012.1 0.0
28/01:30am 4.5 3.2 3.9 96 0.3 CALM 0 0 0 0 1012.4 1012.4 0.0
28/01:00am 4.3 2.9 3.6 95 0.3 CALM 0 0 0 0 1012.9 1012.9 0.0

Other Formats:

Comma delimited format used in spreadsheet applications
http://www.bom.gov.au/fwo/IDS60801/IDS60801.95687.axf

JavaScript Object Notation format (JSON) in row-major order
http://www.bom.gov.au/fwo/IDS60801/IDS60801.95687.json